sensor_id;sensor_type;location;lat;lon;timestamp;P1;durP1;ratioP1;P2;durP2;ratioP2
70420;SDS011;57848;51.938;15.520;2024-03-08T00:01:30;28.30;;;12.30;;
70420;SDS011;57848;51.938;15.520;2024-03-08T00:03:55;30.97;;;13.90;;
70420;SDS011;57848;51.938;15.520;2024-03-08T00:06:21;29.00;;;13.53;;
70420;SDS011;57848;51.938;15.520;2024-03-08T00:08:46;35.47;;;13.90;;
70420;SDS011;57848;51.938;15.520;2024-03-08T00:11:11;33.38;;;13.52;;
70420;SDS011;57848;51.938;15.520;2024-03-08T00:13:37;34.73;;;14.20;;
70420;SDS011;57848;51.938;15.520;2024-03-08T00:16:02;36.13;;;14.03;;
70420;SDS011;57848;51.938;15.520;2024-03-08T00:18:27;34.00;;;13.43;;
70420;SDS011;57848;51.938;15.520;2024-03-08T00:20:53;32.83;;;13.15;;
70420;SDS011;57848;51.938;15.520;2024-03-08T00:23:19;32.57;;;12.90;;
70420;SDS011;57848;51.938;15.520;2024-03-08T00:25:44;36.77;;;13.77;;
70420;SDS011;57848;51.938;15.520;2024-03-08T00:28:09;31.83;;;13.97;;
70420;SDS011;57848;51.938;15.520;2024-03-08T00:30:38;33.17;;;12.73;;
70420;SDS011;57848;51.938;15.520;2024-03-08T00:33:04;34.10;;;13.55;;
70420;SDS011;57848;51.938;15.520;2024-03-08T00:35:30;30.53;;;12.23;;
70420;SDS011;57848;51.938;15.520;2024-03-08T00:37:55;31.63;;;13.00;;
70420;SDS011;57848;51.938;15.520;2024-03-08T00:40:21;29.73;;;12.35;;
70420;SDS011;57848;51.938;15.520;2024-03-08T00:42:47;30.63;;;12.70;;
70420;SDS011;57848;51.938;15.520;2024-03-08T00:45:13;31.47;;;12.43;;
70420;SDS011;57848;51.938;15.520;2024-03-08T00:47:38;34.87;;;14.10;;
70420;SDS011;57848;51.938;15.520;2024-03-08T00:50:04;33.73;;;13.77;;
70420;SDS011;57848;51.938;15.520;2024-03-08T00:52:29;33.30;;;15.18;;
70420;SDS011;57848;51.938;15.520;2024-03-08T00:54:55;39.73;;;14.27;;
70420;SDS011;57848;51.938;15.520;2024-03-08T00:57:20;37.57;;;14.97;;
70420;SDS011;57848;51.938;15.520;2024-03-08T00:59:47;39.03;;;14.57;;
70420;SDS011;57848;51.938;15.520;2024-03-08T01:02:13;35.97;;;15.45;;
70420;SDS011;57848;51.938;15.520;2024-03-08T01:04:38;43.67;;;15.13;;
70420;SDS011;57848;51.938;15.520;2024-03-08T01:07:04;36.20;;;14.40;;
70420;SDS011;57848;51.938;15.520;2024-03-08T01:09:29;36.97;;;15.35;;
70420;SDS011;57848;51.938;15.520;2024-03-08T01:11:54;35.60;;;14.67;;
70420;SDS011;57848;51.938;15.520;2024-03-08T01:14:20;36.20;;;14.27;;
70420;SDS011;57848;51.938;15.520;2024-03-08T01:16:47;36.38;;;14.57;;
70420;SDS011;57848;51.938;15.520;2024-03-08T01:19:13;34.63;;;14.55;;
70420;SDS011;57848;51.938;15.520;2024-03-08T01:21:38;33.77;;;13.53;;
70420;SDS011;57848;51.938;15.520;2024-03-08T01:24:04;38.17;;;14.00;;
70420;SDS011;57848;51.938;15.520;2024-03-08T01:26:30;33.28;;;13.40;;
70420;SDS011;57848;51.938;15.520;2024-03-08T01:28:55;37.27;;;13.90;;
70420;SDS011;57848;51.938;15.520;2024-03-08T01:31:21;32.97;;;12.90;;
70420;SDS011;57848;51.938;15.520;2024-03-08T01:33:46;38.70;;;13.33;;
70420;SDS011;57848;51.938;15.520;2024-03-08T01:36:11;33.17;;;13.77;;
70420;SDS011;57848;51.938;15.520;2024-03-08T01:38:40;34.35;;;12.73;;
70420;SDS011;57848;51.938;15.520;2024-03-08T01:41:06;30.75;;;12.48;;
70420;SDS011;57848;51.938;15.520;2024-03-08T01:43:31;32.10;;;12.00;;
70420;SDS011;57848;51.938;15.520;2024-03-08T01:45:57;27.10;;;11.17;;
70420;SDS011;57848;51.938;15.520;2024-03-08T01:48:27;31.42;;;12.23;;
70420;SDS011;57848;51.938;15.520;2024-03-08T01:50:53;33.97;;;12.35;;
70420;SDS011;57848;51.938;15.520;2024-03-08T01:53:20;30.93;;;11.27;;
70420;SDS011;57848;51.938;15.520;2024-03-08T01:55:49;27.25;;;11.30;;
70420;SDS011;57848;51.938;15.520;2024-03-08T01:58:15;27.67;;;10.68;;
70420;SDS011;57848;51.938;15.520;2024-03-08T02:00:42;29.17;;;12.17;;
70420;SDS011;57848;51.938;15.520;2024-03-08T02:03:09;31.33;;;13.30;;
70420;SDS011;57848;51.938;15.520;2024-03-08T02:05:36;27.55;;;11.52;;
70420;SDS011;57848;51.938;15.520;2024-03-08T02:08:03;32.35;;;13.05;;
70420;SDS011;57848;51.938;15.520;2024-03-08T02:10:30;32.05;;;12.95;;
70420;SDS011;57848;51.938;15.520;2024-03-08T02:12:57;32.10;;;12.47;;
70420;SDS011;57848;51.938;15.520;2024-03-08T02:15:23;33.00;;;13.13;;
70420;SDS011;57848;51.938;15.520;2024-03-08T02:17:48;33.63;;;13.47;;
70420;SDS011;57848;51.938;15.520;2024-03-08T02:20:14;32.55;;;13.50;;
70420;SDS011;57848;51.938;15.520;2024-03-08T02:22:39;36.17;;;13.47;;
70420;SDS011;57848;51.938;15.520;2024-03-08T02:25:04;37.23;;;14.27;;
70420;SDS011;57848;51.938;15.520;2024-03-08T02:27:31;45.75;;;15.60;;
70420;SDS011;57848;51.938;15.520;2024-03-08T02:29:56;45.93;;;15.37;;
70420;SDS011;57848;51.938;15.520;2024-03-08T02:32:22;44.30;;;14.50;;
70420;SDS011;57848;51.938;15.520;2024-03-08T02:34:48;39.00;;;14.67;;
70420;SDS011;57848;51.938;15.520;2024-03-08T02:37:14;48.35;;;16.02;;
70420;SDS011;57848;51.938;15.520;2024-03-08T02:39:40;45.30;;;15.53;;
70420;SDS011;57848;51.938;15.520;2024-03-08T02:42:06;46.50;;;17.00;;
70420;SDS011;57848;51.938;15.520;2024-03-08T02:44:32;45.08;;;16.23;;
70420;SDS011;57848;51.938;15.520;2024-03-08T02:46:58;48.03;;;17.23;;
70420;SDS011;57848;51.938;15.520;2024-03-08T02:49:24;56.43;;;17.23;;
70420;SDS011;57848;51.938;15.520;2024-03-08T02:51:51;44.17;;;16.50;;
70420;SDS011;57848;51.938;15.520;2024-03-08T02:54:17;43.50;;;16.80;;
70420;SDS011;57848;51.938;15.520;2024-03-08T02:56:42;50.50;;;16.47;;
70420;SDS011;57848;51.938;15.520;2024-03-08T02:59:07;43.23;;;15.43;;
70420;SDS011;57848;51.938;15.520;2024-03-08T03:01:33;42.88;;;15.68;;
70420;SDS011;57848;51.938;15.520;2024-03-08T03:03:59;46.83;;;16.07;;
70420;SDS011;57848;51.938;15.520;2024-03-08T03:06:25;34.20;;;15.60;;
70420;SDS011;57848;51.938;15.520;2024-03-08T03:08:51;44.37;;;16.13;;
70420;SDS011;57848;51.938;15.520;2024-03-08T03:11:16;42.83;;;14.93;;
70420;SDS011;57848;51.938;15.520;2024-03-08T03:13:42;40.10;;;15.50;;
70420;SDS011;57848;51.938;15.520;2024-03-08T03:16:16;42.50;;;17.15;;
70420;SDS011;57848;51.938;15.520;2024-03-08T03:18:45;40.83;;;15.67;;
70420;SDS011;57848;51.938;15.520;2024-03-08T03:21:10;39.92;;;16.33;;
70420;SDS011;57848;51.938;15.520;2024-03-08T03:23:37;36.30;;;15.45;;
70420;SDS011;57848;51.938;15.520;2024-03-08T03:26:04;40.42;;;15.95;;
70420;SDS011;57848;51.938;15.520;2024-03-08T03:28:32;44.27;;;16.80;;
70420;SDS011;57848;51.938;15.520;2024-03-08T03:30:58;36.83;;;17.02;;
70420;SDS011;57848;51.938;15.520;2024-03-08T03:33:24;41.40;;;16.35;;
70420;SDS011;57848;51.938;15.520;2024-03-08T03:35:49;40.47;;;16.70;;
70420;SDS011;57848;51.938;15.520;2024-03-08T03:38:16;37.78;;;16.63;;
70420;SDS011;57848;51.938;15.520;2024-03-08T03:40:42;40.07;;;16.73;;
70420;SDS011;57848;51.938;15.520;2024-03-08T03:43:10;38.40;;;15.85;;
70420;SDS011;57848;51.938;15.520;2024-03-08T03:45:36;44.25;;;17.05;;
70420;SDS011;57848;51.938;15.520;2024-03-08T03:48:04;38.20;;;16.00;;
70420;SDS011;57848;51.938;15.520;2024-03-08T03:50:31;39.45;;;15.70;;
70420;SDS011;57848;51.938;15.520;2024-03-08T03:52:59;39.78;;;16.60;;
70420;SDS011;57848;51.938;15.520;2024-03-08T03:55:24;38.27;;;16.17;;
70420;SDS011;57848;51.938;15.520;2024-03-08T03:57:50;43.60;;;16.50;;
70420;SDS011;57848;51.938;15.520;2024-03-08T04:00:15;42.00;;;16.83;;
70420;SDS011;57848;51.938;15.520;2024-03-08T04:02:41;41.07;;;16.80;;
70420;SDS011;57848;51.938;15.520;2024-03-08T04:05:07;40.40;;;17.10;;
70420;SDS011;57848;51.938;15.520;2024-03-08T04:07:34;40.20;;;16.55;;
70420;SDS011;57848;51.938;15.520;2024-03-08T04:10:01;44.97;;;18.00;;
70420;SDS011;57848;51.938;15.520;2024-03-08T04:12:27;38.80;;;16.05;;
70420;SDS011;57848;51.938;15.520;2024-03-08T04:14:54;41.55;;;17.27;;
70420;SDS011;57848;51.938;15.520;2024-03-08T04:17:20;39.65;;;17.40;;
70420;SDS011;57848;51.938;15.520;2024-03-08T04:19:46;39.93;;;15.63;;
70420;SDS011;57848;51.938;15.520;2024-03-08T04:22:13;40.53;;;16.45;;
70420;SDS011;57848;51.938;15.520;2024-03-08T04:24:38;39.83;;;16.17;;
70420;SDS011;57848;51.938;15.520;2024-03-08T04:27:05;44.25;;;18.35;;
70420;SDS011;57848;51.938;15.520;2024-03-08T04:29:31;43.30;;;19.08;;
70420;SDS011;57848;51.938;15.520;2024-03-08T04:31:57;46.97;;;17.57;;
70420;SDS011;57848;51.938;15.520;2024-03-08T04:34:23;47.03;;;18.35;;
70420;SDS011;57848;51.938;15.520;2024-03-08T04:36:49;44.03;;;18.17;;
70420;SDS011;57848;51.938;15.520;2024-03-08T04:39:14;38.75;;;17.00;;
70420;SDS011;57848;51.938;15.520;2024-03-08T04:41:40;42.93;;;18.00;;
70420;SDS011;57848;51.938;15.520;2024-03-08T04:44:08;55.85;;;19.10;;
70420;SDS011;57848;51.938;15.520;2024-03-08T04:46:34;47.28;;;20.23;;
70420;SDS011;57848;51.938;15.520;2024-03-08T04:49:00;46.83;;;19.20;;
70420;SDS011;57848;51.938;15.520;2024-03-08T04:51:26;50.33;;;20.03;;
70420;SDS011;57848;51.938;15.520;2024-03-08T04:53:51;51.63;;;20.67;;
70420;SDS011;57848;51.938;15.520;2024-03-08T04:56:16;50.80;;;20.27;;
70420;SDS011;57848;51.938;15.520;2024-03-08T04:58:45;44.65;;;19.35;;
70420;SDS011;57848;51.938;15.520;2024-03-08T05:01:14;48.47;;;19.95;;
70420;SDS011;57848;51.938;15.520;2024-03-08T05:03:40;46.05;;;19.45;;
70420;SDS011;57848;51.938;15.520;2024-03-08T05:06:05;52.90;;;21.50;;
70420;SDS011;57848;51.938;15.520;2024-03-08T05:08:31;48.80;;;21.23;;
70420;SDS011;57848;51.938;15.520;2024-03-08T05:10:56;51.67;;;21.20;;
70420;SDS011;57848;51.938;15.520;2024-03-08T05:13:22;55.37;;;20.80;;
70420;SDS011;57848;51.938;15.520;2024-03-08T05:15:48;48.90;;;21.33;;
70420;SDS011;57848;51.938;15.520;2024-03-08T05:18:15;53.35;;;20.83;;
70420;SDS011;57848;51.938;15.520;2024-03-08T05:20:40;53.10;;;21.80;;
70420;SDS011;57848;51.938;15.520;2024-03-08T05:23:06;52.88;;;21.63;;
70420;SDS011;57848;51.938;15.520;2024-03-08T05:25:32;55.03;;;20.97;;
70420;SDS011;57848;51.938;15.520;2024-03-08T05:27:57;58.87;;;21.40;;
70420;SDS011;57848;51.938;15.520;2024-03-08T05:30:23;48.63;;;20.45;;
70420;SDS011;57848;51.938;15.520;2024-03-08T05:32:48;55.03;;;21.47;;
70420;SDS011;57848;51.938;15.520;2024-03-08T05:35:13;51.50;;;22.60;;
70420;SDS011;57848;51.938;15.520;2024-03-08T05:37:41;56.08;;;22.30;;
70420;SDS011;57848;51.938;15.520;2024-03-08T05:40:07;59.08;;;23.00;;
70420;SDS011;57848;51.938;15.520;2024-03-08T05:42:37;55.37;;;22.07;;
70420;SDS011;57848;51.938;15.520;2024-03-08T05:45:06;53.75;;;21.65;;
70420;SDS011;57848;51.938;15.520;2024-03-08T05:47:31;48.95;;;19.98;;
70420;SDS011;57848;51.938;15.520;2024-03-08T05:50:00;47.13;;;19.70;;
70420;SDS011;57848;51.938;15.520;2024-03-08T05:52:25;48.03;;;19.33;;
70420;SDS011;57848;51.938;15.520;2024-03-08T05:54:51;44.90;;;18.90;;
70420;SDS011;57848;51.938;15.520;2024-03-08T05:57:16;46.63;;;18.65;;
70420;SDS011;57848;51.938;15.520;2024-03-08T05:59:42;39.53;;;16.73;;
70420;SDS011;57848;51.938;15.520;2024-03-08T06:02:07;39.37;;;16.93;;
70420;SDS011;57848;51.938;15.520;2024-03-08T06:04:33;39.13;;;16.47;;
70420;SDS011;57848;51.938;15.520;2024-03-08T06:06:58;41.57;;;17.80;;
70420;SDS011;57848;51.938;15.520;2024-03-08T06:09:24;44.33;;;16.63;;
70420;SDS011;57848;51.938;15.520;2024-03-08T06:11:50;40.97;;;17.70;;
70420;SDS011;57848;51.938;15.520;2024-03-08T06:14:16;44.75;;;17.40;;
70420;SDS011;57848;51.938;15.520;2024-03-08T06:16:46;40.95;;;16.02;;
70420;SDS011;57848;51.938;15.520;2024-03-08T06:19:12;40.80;;;16.05;;
70420;SDS011;57848;51.938;15.520;2024-03-08T06:21:38;33.90;;;15.17;;
70420;SDS011;57848;51.938;15.520;2024-03-08T06:24:04;40.65;;;15.40;;
70420;SDS011;57848;51.938;15.520;2024-03-08T06:26:29;42.53;;;16.67;;
70420;SDS011;57848;51.938;15.520;2024-03-08T06:28:55;36.72;;;15.77;;
70420;SDS011;57848;51.938;15.520;2024-03-08T06:31:21;39.33;;;17.03;;
70420;SDS011;57848;51.938;15.520;2024-03-08T06:33:46;38.17;;;16.67;;
70420;SDS011;57848;51.938;15.520;2024-03-08T06:36:15;39.00;;;16.60;;
70420;SDS011;57848;51.938;15.520;2024-03-08T06:38:43;35.33;;;14.30;;
70420;SDS011;57848;51.938;15.520;2024-03-08T06:41:11;36.22;;;14.73;;
70420;SDS011;57848;51.938;15.520;2024-03-08T06:43:43;38.60;;;14.32;;
70420;SDS011;57848;51.938;15.520;2024-03-08T06:46:09;31.40;;;13.95;;
70420;SDS011;57848;51.938;15.520;2024-03-08T06:48:35;33.77;;;14.40;;
70420;SDS011;57848;51.938;15.520;2024-03-08T06:51:02;32.90;;;12.75;;
70420;SDS011;57848;51.938;15.520;2024-03-08T06:53:27;30.02;;;12.45;;
70420;SDS011;57848;51.938;15.520;2024-03-08T06:55:53;32.43;;;13.17;;
70420;SDS011;57848;51.938;15.520;2024-03-08T06:58:19;28.55;;;12.52;;
70420;SDS011;57848;51.938;15.520;2024-03-08T07:00:45;32.23;;;12.40;;
70420;SDS011;57848;51.938;15.520;2024-03-08T07:03:10;28.80;;;12.13;;
70420;SDS011;57848;51.938;15.520;2024-03-08T07:05:37;29.65;;;12.43;;
70420;SDS011;57848;51.938;15.520;2024-03-08T07:08:02;31.10;;;11.67;;
70420;SDS011;57848;51.938;15.520;2024-03-08T07:10:28;31.95;;;12.60;;
70420;SDS011;57848;51.938;15.520;2024-03-08T07:12:54;28.17;;;11.50;;
70420;SDS011;57848;51.938;15.520;2024-03-08T07:15:19;29.20;;;11.90;;
70420;SDS011;57848;51.938;15.520;2024-03-08T07:17:45;28.38;;;11.38;;
70420;SDS011;57848;51.938;15.520;2024-03-08T07:20:11;30.63;;;12.10;;
70420;SDS011;57848;51.938;15.520;2024-03-08T07:22:37;28.67;;;12.25;;
70420;SDS011;57848;51.938;15.520;2024-03-08T07:25:06;32.47;;;12.50;;
70420;SDS011;57848;51.938;15.520;2024-03-08T07:27:35;33.40;;;12.53;;
70420;SDS011;57848;51.938;15.520;2024-03-08T07:30:01;28.35;;;11.88;;
70420;SDS011;57848;51.938;15.520;2024-03-08T07:32:28;30.23;;;12.10;;
70420;SDS011;57848;51.938;15.520;2024-03-08T07:34:55;32.47;;;12.32;;
70420;SDS011;57848;51.938;15.520;2024-03-08T07:37:21;30.00;;;12.32;;
70420;SDS011;57848;51.938;15.520;2024-03-08T07:39:46;29.33;;;11.90;;
70420;SDS011;57848;51.938;15.520;2024-03-08T07:42:12;31.03;;;13.47;;
70420;SDS011;57848;51.938;15.520;2024-03-08T07:44:38;29.08;;;13.23;;
70420;SDS011;57848;51.938;15.520;2024-03-08T07:47:03;27.48;;;13.25;;
70420;SDS011;57848;51.938;15.520;2024-03-08T07:49:29;32.93;;;13.97;;
70420;SDS011;57848;51.938;15.520;2024-03-08T07:51:55;32.40;;;14.33;;
70420;SDS011;57848;51.938;15.520;2024-03-08T07:54:21;32.50;;;12.05;;
70420;SDS011;57848;51.938;15.520;2024-03-08T07:56:46;32.07;;;13.60;;
70420;SDS011;57848;51.938;15.520;2024-03-08T07:59:12;34.22;;;12.75;;
70420;SDS011;57848;51.938;15.520;2024-03-08T08:01:37;28.33;;;12.03;;
70420;SDS011;57848;51.938;15.520;2024-03-08T08:04:03;30.13;;;12.17;;
70420;SDS011;57848;51.938;15.520;2024-03-08T08:06:28;31.60;;;13.65;;
70420;SDS011;57848;51.938;15.520;2024-03-08T08:08:57;28.77;;;11.67;;
70420;SDS011;57848;51.938;15.520;2024-03-08T08:11:22;25.38;;;12.18;;
70420;SDS011;57848;51.938;15.520;2024-03-08T08:13:47;27.13;;;12.50;;
70420;SDS011;57848;51.938;15.520;2024-03-08T08:16:13;30.17;;;12.73;;
70420;SDS011;57848;51.938;15.520;2024-03-08T08:18:38;30.73;;;12.40;;
70420;SDS011;57848;51.938;15.520;2024-03-08T08:21:04;26.23;;;11.75;;
70420;SDS011;57848;51.938;15.520;2024-03-08T08:23:31;28.00;;;12.20;;
70420;SDS011;57848;51.938;15.520;2024-03-08T08:25:57;30.67;;;13.52;;
70420;SDS011;57848;51.938;15.520;2024-03-08T08:28:22;31.37;;;12.80;;
70420;SDS011;57848;51.938;15.520;2024-03-08T08:30:48;25.07;;;11.67;;
70420;SDS011;57848;51.938;15.520;2024-03-08T08:33:16;32.85;;;12.98;;
70420;SDS011;57848;51.938;15.520;2024-03-08T08:35:41;31.20;;;12.30;;
70420;SDS011;57848;51.938;15.520;2024-03-08T08:38:07;28.33;;;12.23;;
70420;SDS011;57848;51.938;15.520;2024-03-08T08:40:33;22.00;;;10.00;;
70420;SDS011;57848;51.938;15.520;2024-03-08T08:43:00;28.07;;;11.77;;
70420;SDS011;57848;51.938;15.520;2024-03-08T08:45:28;25.52;;;11.00;;
70420;SDS011;57848;51.938;15.520;2024-03-08T08:47:54;26.43;;;11.47;;
70420;SDS011;57848;51.938;15.520;2024-03-08T08:50:19;25.15;;;10.77;;
70420;SDS011;57848;51.938;15.520;2024-03-08T08:52:48;30.63;;;10.53;;
70420;SDS011;57848;51.938;15.520;2024-03-08T08:55:14;23.20;;;10.98;;
70420;SDS011;57848;51.938;15.520;2024-03-08T08:57:40;26.75;;;12.05;;
70420;SDS011;57848;51.938;15.520;2024-03-08T09:00:05;27.87;;;12.10;;
70420;SDS011;57848;51.938;15.520;2024-03-08T09:02:32;27.83;;;11.82;;
70420;SDS011;57848;51.938;15.520;2024-03-08T09:04:59;26.67;;;11.65;;
70420;SDS011;57848;51.938;15.520;2024-03-08T09:07:25;24.85;;;11.65;;
70420;SDS011;57848;51.938;15.520;2024-03-08T09:09:52;25.98;;;12.38;;
70420;SDS011;57848;51.938;15.520;2024-03-08T09:12:21;27.77;;;12.17;;
70420;SDS011;57848;51.938;15.520;2024-03-08T09:14:47;29.38;;;12.00;;
70420;SDS011;57848;51.938;15.520;2024-03-08T09:17:13;25.97;;;11.47;;
70420;SDS011;57848;51.938;15.520;2024-03-08T09:19:42;28.85;;;12.27;;
70420;SDS011;57848;51.938;15.520;2024-03-08T09:22:08;26.37;;;11.60;;
70420;SDS011;57848;51.938;15.520;2024-03-08T09:24:33;26.83;;;11.60;;
70420;SDS011;57848;51.938;15.520;2024-03-08T09:26:59;28.10;;;12.00;;
70420;SDS011;57848;51.938;15.520;2024-03-08T09:29:24;26.87;;;11.43;;
70420;SDS011;57848;51.938;15.520;2024-03-08T09:31:49;31.23;;;11.47;;
70420;SDS011;57848;51.938;15.520;2024-03-08T09:34:15;26.27;;;11.80;;
70420;SDS011;57848;51.938;15.520;2024-03-08T09:36:40;26.87;;;12.37;;
70420;SDS011;57848;51.938;15.520;2024-03-08T09:39:06;32.25;;;12.80;;
70420;SDS011;57848;51.938;15.520;2024-03-08T09:41:33;36.10;;;13.77;;
70420;SDS011;57848;51.938;15.520;2024-03-08T09:43:59;34.55;;;13.48;;
70420;SDS011;57848;51.938;15.520;2024-03-08T09:46:25;31.25;;;13.00;;
70420;SDS011;57848;51.938;15.520;2024-03-08T09:48:52;33.00;;;13.53;;
70420;SDS011;57848;51.938;15.520;2024-03-08T09:51:19;31.40;;;14.02;;
70420;SDS011;57848;51.938;15.520;2024-03-08T09:53:49;29.40;;;13.32;;
70420;SDS011;57848;51.938;15.520;2024-03-08T09:56:15;24.60;;;11.87;;
70420;SDS011;57848;51.938;15.520;2024-03-08T09:58:40;27.50;;;12.77;;
70420;SDS011;57848;51.938;15.520;2024-03-08T10:01:24;27.00;;;12.93;;
70420;SDS011;57848;51.938;15.520;2024-03-08T10:03:51;27.50;;;12.27;;
70420;SDS011;57848;51.938;15.520;2024-03-08T10:06:18;25.10;;;11.98;;
70420;SDS011;57848;51.938;15.520;2024-03-08T10:08:48;24.60;;;12.68;;
70420;SDS011;57848;51.938;15.520;2024-03-08T10:11:13;28.57;;;13.47;;
70420;SDS011;57848;51.938;15.520;2024-03-08T10:13:39;25.53;;;12.47;;
70420;SDS011;57848;51.938;15.520;2024-03-08T10:16:05;21.43;;;11.67;;
70420;SDS011;57848;51.938;15.520;2024-03-08T10:18:32;27.40;;;14.05;;
70420;SDS011;57848;51.938;15.520;2024-03-08T10:23:30;24.40;;;12.88;;
70420;SDS011;57848;51.938;15.520;2024-03-08T10:25:56;25.67;;;11.90;;
70420;SDS011;57848;51.938;15.520;2024-03-08T10:28:23;24.23;;;12.27;;
70420;SDS011;57848;51.938;15.520;2024-03-08T10:30:50;23.50;;;12.98;;
70420;SDS011;57848;51.938;15.520;2024-03-08T10:33:15;25.10;;;12.73;;
70420;SDS011;57848;51.938;15.520;2024-03-08T10:35:40;24.13;;;12.40;;
70420;SDS011;57848;51.938;15.520;2024-03-08T10:38:06;20.67;;;11.20;;
70420;SDS011;57848;51.938;15.520;2024-03-08T10:40:39;20.88;;;11.07;;
70420;SDS011;57848;51.938;15.520;2024-03-08T10:43:05;22.47;;;12.37;;
70420;SDS011;57848;51.938;15.520;2024-03-08T10:45:38;23.92;;;12.45;;
70420;SDS011;57848;51.938;15.520;2024-03-08T10:50:56;22.98;;;12.25;;
70420;SDS011;57848;51.938;15.520;2024-03-08T10:53:22;20.45;;;11.23;;
70420;SDS011;57848;51.938;15.520;2024-03-08T10:55:49;24.57;;;13.40;;
70420;SDS011;57848;51.938;15.520;2024-03-08T10:58:18;24.48;;;12.98;;
70420;SDS011;57848;51.938;15.520;2024-03-08T11:00:46;22.85;;;12.20;;
70420;SDS011;57848;51.938;15.520;2024-03-08T11:03:43;21.35;;;11.80;;
70420;SDS011;57848;51.938;15.520;2024-03-08T11:06:16;20.75;;;11.52;;
70420;SDS011;57848;51.938;15.520;2024-03-08T11:08:44;25.73;;;13.33;;
70420;SDS011;57848;51.938;15.520;2024-03-08T11:11:24;20.98;;;11.35;;
70420;SDS011;57848;51.938;15.520;2024-03-08T11:13:57;21.35;;;11.00;;
70420;SDS011;57848;51.938;15.520;2024-03-08T11:18:54;23.45;;;12.45;;
70420;SDS011;57848;51.938;15.520;2024-03-08T11:21:24;20.97;;;12.93;;
70420;SDS011;57848;51.938;15.520;2024-03-08T11:24:00;23.13;;;11.88;;
70420;SDS011;57848;51.938;15.520;2024-03-08T11:26:27;21.30;;;11.82;;
70420;SDS011;57848;51.938;15.520;2024-03-08T11:28:58;20.60;;;11.90;;
70420;SDS011;57848;51.938;15.520;2024-03-08T11:32:04;20.08;;;11.60;;
70420;SDS011;57848;51.938;15.520;2024-03-08T11:34:33;20.60;;;11.60;;
70420;SDS011;57848;51.938;15.520;2024-03-08T11:36:58;21.63;;;11.80;;
70420;SDS011;57848;51.938;15.520;2024-03-08T11:39:24;20.90;;;12.03;;
70420;SDS011;57848;51.938;15.520;2024-03-08T11:41:50;22.05;;;12.30;;
70420;SDS011;57848;51.938;15.520;2024-03-08T11:44:16;23.87;;;12.70;;
70420;SDS011;57848;51.938;15.520;2024-03-08T11:46:42;20.27;;;13.13;;
70420;SDS011;57848;51.938;15.520;2024-03-08T11:49:11;21.48;;;12.23;;
70420;SDS011;57848;51.938;15.520;2024-03-08T11:51:37;20.90;;;11.90;;
70420;SDS011;57848;51.938;15.520;2024-03-08T11:54:03;22.27;;;12.60;;
70420;SDS011;57848;51.938;15.520;2024-03-08T11:56:28;21.23;;;12.98;;
70420;SDS011;57848;51.938;15.520;2024-03-08T11:58:54;21.77;;;13.47;;
70420;SDS011;57848;51.938;15.520;2024-03-08T12:01:24;20.60;;;12.45;;
70420;SDS011;57848;51.938;15.520;2024-03-08T12:03:53;24.30;;;14.13;;
70420;SDS011;57848;51.938;15.520;2024-03-08T12:06:19;20.80;;;12.13;;
70420;SDS011;57848;51.938;15.520;2024-03-08T12:08:48;20.73;;;12.90;;
70420;SDS011;57848;51.938;15.520;2024-03-08T12:11:14;22.10;;;12.95;;
70420;SDS011;57848;51.938;15.520;2024-03-08T12:13:39;18.73;;;12.63;;
70420;SDS011;57848;51.938;15.520;2024-03-08T12:16:06;21.23;;;12.70;;
70420;SDS011;57848;51.938;15.520;2024-03-08T12:18:35;21.65;;;12.13;;
70420;SDS011;57848;51.938;15.520;2024-03-08T12:21:06;22.00;;;11.40;;
70420;SDS011;57848;51.938;15.520;2024-03-08T12:24:08;21.70;;;12.73;;
70420;SDS011;57848;51.938;15.520;2024-03-08T12:26:37;22.95;;;12.93;;
70420;SDS011;57848;51.938;15.520;2024-03-08T12:29:20;28.05;;;12.35;;
70420;SDS011;57848;51.938;15.520;2024-03-08T12:31:57;20.38;;;13.27;;
70420;SDS011;57848;51.938;15.520;2024-03-08T12:34:26;21.08;;;12.27;;
70420;SDS011;57848;51.938;15.520;2024-03-08T12:36:52;21.73;;;12.23;;
70420;SDS011;57848;51.938;15.520;2024-03-08T12:39:19;22.27;;;13.15;;
70420;SDS011;57848;51.938;15.520;2024-03-08T12:41:47;20.35;;;13.13;;
70420;SDS011;57848;51.938;15.520;2024-03-08T12:44:14;20.92;;;12.77;;
70420;SDS011;57848;51.938;15.520;2024-03-08T12:46:39;24.07;;;12.93;;
70420;SDS011;57848;51.938;15.520;2024-03-08T12:49:06;21.13;;;13.30;;
70420;SDS011;57848;51.938;15.520;2024-03-08T12:51:33;22.17;;;12.38;;
70420;SDS011;57848;51.938;15.520;2024-03-08T12:53:58;21.33;;;12.27;;
70420;SDS011;57848;51.938;15.520;2024-03-08T12:56:30;27.85;;;13.23;;
70420;SDS011;57848;51.938;15.520;2024-03-08T12:58:58;21.30;;;11.90;;
70420;SDS011;57848;51.938;15.520;2024-03-08T13:01:25;23.35;;;12.48;;
70420;SDS011;57848;51.938;15.520;2024-03-08T13:03:50;20.75;;;12.15;;
70420;SDS011;57848;51.938;15.520;2024-03-08T13:06:16;23.83;;;11.93;;
70420;SDS011;57848;51.938;15.520;2024-03-08T13:08:41;25.47;;;11.87;;
70420;SDS011;57848;51.938;15.520;2024-03-08T13:11:08;22.77;;;11.60;;
70420;SDS011;57848;51.938;15.520;2024-03-08T13:13:36;24.85;;;12.82;;
70420;SDS011;57848;51.938;15.520;2024-03-08T13:16:02;25.77;;;13.23;;
70420;SDS011;57848;51.938;15.520;2024-03-08T13:18:28;21.95;;;11.73;;
70420;SDS011;57848;51.938;15.520;2024-03-08T13:20:54;21.70;;;11.57;;
70420;SDS011;57848;51.938;15.520;2024-03-08T13:23:19;21.00;;;12.05;;
70420;SDS011;57848;51.938;15.520;2024-03-08T13:25:45;25.67;;;12.90;;
70420;SDS011;57848;51.938;15.520;2024-03-08T13:28:12;23.90;;;12.23;;
70420;SDS011;57848;51.938;15.520;2024-03-08T13:30:38;26.85;;;12.23;;
70420;SDS011;57848;51.938;15.520;2024-03-08T13:33:04;24.20;;;11.80;;
70420;SDS011;57848;51.938;15.520;2024-03-08T13:35:30;27.83;;;12.55;;
70420;SDS011;57848;51.938;15.520;2024-03-08T13:37:55;22.00;;;12.18;;
70420;SDS011;57848;51.938;15.520;2024-03-08T13:40:21;23.57;;;12.07;;
70420;SDS011;57848;51.938;15.520;2024-03-08T13:42:47;24.50;;;12.20;;
70420;SDS011;57848;51.938;15.520;2024-03-08T13:45:14;25.75;;;11.98;;
70420;SDS011;57848;51.938;15.520;2024-03-08T13:47:43;23.67;;;11.93;;
70420;SDS011;57848;51.938;15.520;2024-03-08T13:50:09;23.90;;;11.20;;
70420;SDS011;57848;51.938;15.520;2024-03-08T13:52:38;23.08;;;11.68;;
70420;SDS011;57848;51.938;15.520;2024-03-08T13:55:05;20.57;;;11.00;;
70420;SDS011;57848;51.938;15.520;2024-03-08T13:57:31;21.05;;;10.43;;
70420;SDS011;57848;51.938;15.520;2024-03-08T13:59:57;23.90;;;11.80;;
70420;SDS011;57848;51.938;15.520;2024-03-08T14:02:23;23.92;;;10.82;;
70420;SDS011;57848;51.938;15.520;2024-03-08T14:04:53;25.10;;;11.82;;
70420;SDS011;57848;51.938;15.520;2024-03-08T14:07:21;19.80;;;9.70;;
70420;SDS011;57848;51.938;15.520;2024-03-08T14:09:48;21.40;;;10.10;;
70420;SDS011;57848;51.938;15.520;2024-03-08T14:12:14;22.90;;;11.13;;
70420;SDS011;57848;51.938;15.520;2024-03-08T14:14:43;22.13;;;10.68;;